createdAt,value
2018-08-23T06:00:09.877Z,13.00
2018-08-23T06:02:39.548Z,26.07
2018-08-23T06:05:09.056Z,27.42
2018-08-23T06:07:38.685Z,30.23
2018-08-23T06:10:08.302Z,21.40
2018-08-23T06:12:37.978Z,25.47
2018-08-23T06:15:08.041Z,16.83
2018-08-23T06:17:37.822Z,18.00
2018-08-23T06:20:08.029Z,18.30
2018-08-23T06:22:37.663Z,21.67
2018-08-23T06:25:06.811Z,23.17
2018-08-23T06:27:36.073Z,21.10
2018-08-23T06:30:05.737Z,20.70
2018-08-23T06:32:34.841Z,24.97
2018-08-23T06:35:04.190Z,19.27
2018-08-23T06:37:33.247Z,20.43
2018-08-23T06:40:02.421Z,20.47
2018-08-23T06:42:45.097Z,16.00
2018-08-23T06:45:14.241Z,23.47
2018-08-23T06:47:46.279Z,21.20
2018-08-23T06:50:15.351Z,21.63
2018-08-23T06:52:48.669Z,22.27
2018-08-23T06:55:21.962Z,16.42
2018-08-23T06:57:55.253Z,23.87
2018-08-23T07:00:25.447Z,21.50
2018-08-23T07:02:54.715Z,21.47
2018-08-23T07:05:23.954Z,20.83
2018-08-23T07:07:53.266Z,23.00
2018-08-23T07:10:22.302Z,24.00
2018-08-23T07:12:51.427Z,25.47
2018-08-23T07:15:20.571Z,24.93
2018-08-23T07:17:49.726Z,16.23
2018-08-23T07:20:18.733Z,22.42
2018-08-23T07:22:48.789Z,21.87
2018-08-23T07:25:19.328Z,24.33
2018-08-23T07:27:48.469Z,25.88
2018-08-23T07:30:20.800Z,22.50
2018-08-23T07:32:51.287Z,22.40
2018-08-23T07:35:21.511Z,25.62
2018-08-23T07:37:51.891Z,30.20
2018-08-23T07:40:22.222Z,28.35
2018-08-23T07:42:53.066Z,24.77
2018-08-23T07:45:22.363Z,29.20
2018-08-23T07:47:53.450Z,21.80
2018-08-23T07:50:22.660Z,25.92
2018-08-23T07:52:53.451Z,29.75
2018-08-23T07:55:22.466Z,26.23
2018-08-23T07:57:52.519Z,24.05
2018-08-23T08:00:26.600Z,26.17
2018-08-23T08:02:56.417Z,21.80
2018-08-23T08:05:29.992Z,28.12
2018-08-23T08:07:59.195Z,25.08
2018-08-23T08:10:33.480Z,26.57
2018-08-23T08:13:02.567Z,22.85
2018-08-23T08:15:31.682Z,22.20
2018-08-23T08:18:05.755Z,29.00
2018-08-23T08:20:35.380Z,26.37
2018-08-23T08:23:04.439Z,25.57
2018-08-23T08:25:33.475Z,23.42
2018-08-23T08:28:02.677Z,28.42
2018-08-23T08:30:42.080Z,27.55
2018-08-23T08:33:16.383Z,22.50
2018-08-23T08:35:46.602Z,22.37
2018-08-23T08:38:15.769Z,23.25
2018-08-23T08:40:45.154Z,24.03
2018-08-23T08:43:14.418Z,21.95
2018-08-23T08:45:43.517Z,22.52
2018-08-23T08:48:19.241Z,23.22
2018-08-23T08:51:01.276Z,27.82
2018-08-23T08:53:31.349Z,22.93
2018-08-23T08:56:00.555Z,19.55
2018-08-23T08:58:29.844Z,19.92
2018-08-23T09:00:59.248Z,21.57
2018-08-23T09:03:32.809Z,18.98
2018-08-23T09:06:03.608Z,19.42
2018-08-23T09:08:32.664Z,24.57
2018-08-23T09:11:01.766Z,19.07
2018-08-23T09:13:35.012Z,20.27
2018-08-23T09:16:08.206Z,18.80
2018-08-23T09:18:39.831Z,16.27
2018-08-23T09:21:08.971Z,19.85
2018-08-23T09:23:38.114Z,20.27
2018-08-23T09:26:07.481Z,18.45
2018-08-23T09:28:37.102Z,17.73
2018-08-23T09:31:06.856Z,19.75
2018-08-23T09:33:36.431Z,19.40
2018-08-23T09:36:05.661Z,20.77
2018-08-23T09:38:34.724Z,23.47
2018-08-23T09:41:03.883Z,17.02
2018-08-23T09:43:34.190Z,19.75
2018-08-23T09:46:04.611Z,21.70
2018-08-23T09:48:33.821Z,20.02
2018-08-23T09:51:07.762Z,18.73
2018-08-23T09:53:36.827Z,16.60
2018-08-23T09:56:06.242Z,18.12
2018-08-23T09:58:39.655Z,20.15
2018-08-23T10:01:12.972Z,14.78
2018-08-23T10:03:46.493Z,18.37
2018-08-23T10:06:21.568Z,19.77
2018-08-23T10:08:56.691Z,19.92
2018-08-23T10:11:30.273Z,20.68
2018-08-23T10:14:03.650Z,18.55
2018-08-23T10:16:36.931Z,19.07
2018-08-23T10:19:10.201Z,16.15
2018-08-23T10:21:43.971Z,16.62
2018-08-23T10:24:17.417Z,17.17
2018-08-23T10:26:47.036Z,15.65
2018-08-23T10:29:16.484Z,14.80
2018-08-23T10:31:45.833Z,14.60
2018-08-23T10:34:14.868Z,17.23
2018-08-23T10:36:44.575Z,15.15
2018-08-23T10:39:14.756Z,15.83
2018-08-23T10:41:44.246Z,16.80
2018-08-23T10:44:13.576Z,16.42
2018-08-23T10:46:46.979Z,16.93
2018-08-23T10:49:16.369Z,15.05
2018-08-23T10:51:45.970Z,14.30
2018-08-23T10:54:15.383Z,14.15
2018-08-23T10:56:45.097Z,16.35
2018-08-23T10:59:14.615Z,20.02
2018-08-23T11:01:44.168Z,18.07
2018-08-23T11:04:13.416Z,14.00
2018-08-23T11:06:46.678Z,18.95
2018-08-23T11:09:20.405Z,18.67
2018-08-23T11:11:49.986Z,19.02
2018-08-23T11:14:23.266Z,24.57
2018-08-23T11:16:56.862Z,16.40
2018-08-23T11:19:30.073Z,18.92
2018-08-23T11:21:59.735Z,19.67
2018-08-23T11:24:28.966Z,22.40
2018-08-23T11:26:58.661Z,17.12
2018-08-23T11:29:28.443Z,20.52
2018-08-23T11:31:57.865Z,21.25
2018-08-23T11:34:27.257Z,19.52
2018-08-23T11:36:56.494Z,21.30
2018-08-23T11:39:25.558Z,23.12
2018-08-23T11:41:54.862Z,23.02
2018-08-23T11:44:24.325Z,22.55
2018-08-23T11:46:53.815Z,20.35
2018-08-23T11:49:22.957Z,20.02
2018-08-23T11:51:52.105Z,18.98
2018-08-23T11:54:21.907Z,24.02
2018-08-23T11:56:50.991Z,18.80
2018-08-23T11:59:20.248Z,18.17
2018-08-23T12:01:49.383Z,18.32
2018-08-23T12:04:18.554Z,18.73
2018-08-23T12:06:48.109Z,18.17
2018-08-23T12:09:17.286Z,16.93
2018-08-23T12:11:46.413Z,17.00
2018-08-23T12:14:15.533Z,16.07
2018-08-23T12:16:44.875Z,16.32
2018-08-23T12:19:13.881Z,15.70
2018-08-23T12:21:43.027Z,17.12
2018-08-23T12:24:12.110Z,14.95
2018-08-23T12:26:41.224Z,15.58
2018-08-23T12:29:10.882Z,14.75
2018-08-23T12:31:40.279Z,14.45
2018-08-23T12:34:10.810Z,13.43
2018-08-23T12:36:43.977Z,14.60
2018-08-23T12:39:17.275Z,13.50
2018-08-23T12:41:50.609Z,12.60
2018-08-23T12:44:19.933Z,16.55
2018-08-23T12:46:53.298Z,14.00
2018-08-23T12:49:22.857Z,16.15
2018-08-23T12:51:52.279Z,14.80
2018-08-23T12:54:21.716Z,13.38
2018-08-23T12:56:51.305Z,16.93
2018-08-23T12:59:20.886Z,15.20
2018-08-23T13:01:50.363Z,14.78
2018-08-23T13:04:19.617Z,16.50
2018-08-23T13:06:48.819Z,17.12
2018-08-23T13:09:18.485Z,15.25
2018-08-23T13:11:47.716Z,15.60
2018-08-23T13:14:17.410Z,17.73
2018-08-23T13:16:46.553Z,20.45
2018-08-23T13:19:16.288Z,17.85
2018-08-23T13:21:45.874Z,16.95
2018-08-23T13:24:15.425Z,19.27
2018-08-23T13:26:46.308Z,18.23
2018-08-23T13:29:15.590Z,18.35
2018-08-23T13:31:45.672Z,15.90
2018-08-23T13:34:15.359Z,17.37
2018-08-23T13:36:44.469Z,16.00
2018-08-23T13:39:14.180Z,15.63
2018-08-23T13:41:43.276Z,17.35
2018-08-23T13:44:12.790Z,14.35
2018-08-23T13:46:41.835Z,16.80
2018-08-23T13:49:10.917Z,13.80
2018-08-23T13:51:40.244Z,14.70
2018-08-23T13:54:09.348Z,14.35
2018-08-23T13:56:38.553Z,16.07
2018-08-23T13:59:07.945Z,14.03
2018-08-23T14:01:37.214Z,16.65
2018-08-23T14:04:06.559Z,13.00
2018-08-23T14:06:35.669Z,12.43
2018-08-23T14:09:06.194Z,13.05
2018-08-23T14:11:35.327Z,13.35
2018-08-23T14:14:04.648Z,13.98
2018-08-23T14:16:34.046Z,12.43
2018-08-23T14:19:03.603Z,11.83
2018-08-23T14:21:32.880Z,11.97
2018-08-23T14:24:02.199Z,14.90
2018-08-23T14:26:31.554Z,13.13
2018-08-23T14:29:00.670Z,12.25
2018-08-23T14:31:29.720Z,10.40
2018-08-23T14:33:58.949Z,11.97
2018-08-23T14:36:28.248Z,9.83
2018-08-23T14:38:57.519Z,11.00
2018-08-23T14:41:26.784Z,10.08
2018-08-23T14:43:55.887Z,11.45
2018-08-23T14:46:29.177Z,9.05
2018-08-23T14:48:58.327Z,8.63
2018-08-23T14:51:27.631Z,8.78
2018-08-23T14:53:56.873Z,16.05
2018-08-23T14:56:30.409Z,9.48
2018-08-23T14:58:59.601Z,12.70
2018-08-23T15:01:29.288Z,10.18
2018-08-23T15:03:58.449Z,8.03
2018-08-23T15:06:28.060Z,9.55
